Latest Weather Observations for Woolshed

IDQ60801

Issued at 4:02 pm EST Wednesday 26 April 2017 (issued every 30 minutes, with the page automatically refreshed every 10 minutes)

About weather observations | Map of weather stations | Latest weather observations for QLD | Other Formats
Station Details ID: 033307 Name: WOOLSHED Lat: -19.42 Lon: 146.54 Height: 556.04 m
Data from the previous 72 hours. | See also: Recent months at Woolshed
Date/Time
EST
Temp
°C
App
Temp
°C
Dew
Point
°C
Rel
Hum
%
Delta-T
°C
Wind Press
QNH
hPa
Press
MSL
hPa
Rain since
9am
mm
Dir  Spd
km/h
Gust
km/h
Spd
kts
Gust
kts
26/04:00pm 23.7 24.6 18.4 72 3.4 NNE 11 17 6 9 1014.2 1011.3 0.0
26/03:30pm 24.3 25.1 18.2 68 3.9 NNE 11 20 6 11 1014.2 1011.3 0.0
26/03:00pm 24.4 25.5 18.1 68 4.0 NE 9 17 5 9 1014.4 1011.4 0.0
26/02:30pm 25.4 27.0 19.1 68 4.1 NNE 9 17 5 9 1014.5 1011.5 0.0
26/02:00pm 25.1 26.6 19.0 69 4.0 NNE 9 17 5 9 1014.8 1011.8 0.0
26/01:30pm 25.0 26.1 18.0 65 4.5 NNE 9 20 5 11 1015.0 1012.0 0.0
26/01:00pm 25.4 26.3 17.6 62 5.0 NNE 9 17 5 9 1015.4 1012.5 0.0
26/12:30pm 24.7 26.1 17.7 65 4.5 N 7 11 4 6 1015.9 1013.0 0.0
26/12:00pm 24.9 26.4 18.1 66 4.4 NNE 7 15 4 8 1016.6 1013.6 0.0
26/11:30am 24.1 25.9 18.3 70 3.7 NNE 6 11 3 6 1017.1 1014.2 0.0
26/11:00am 23.3 25.1 18.2 73 3.3 NE 6 13 3 7 1017.5 1014.6 0.0
26/10:30am 23.2 24.6 17.4 70 3.7 NE 6 9 3 5 1017.8 1014.9 0.0
26/10:00am 21.8 23.4 17.8 78 2.5 NNE 6 9 3 5 1017.9 1015.0 0.0
26/09:30am 22.0 23.6 17.8 77 2.7 NE 6 9 3 5 1017.9 1015.0 0.0
26/09:00am 21.1 22.7 17.9 82 2.0 NE 6 7 3 4 1017.9 1015.0 0.0
26/08:30am 20.3 22.2 18.6 90 1.1 NE 6 9 3 5 1017.7 1014.8 0.0
26/08:00am 19.9 22.3 18.7 93 0.8 NNE 4 7 2 4 1017.5 1014.6 0.0
26/07:30am 19.4 22.1 18.7 96 0.4 NE 2 6 1 3 1017.3 1014.4 0.0
26/07:00am 19.4 22.6 18.9 97 0.3 CALM 0 4 0 2 1017.1 1014.2 0.0
26/06:30am 18.9 21.1 18.4 97 0.3 NNE 4 6 2 3 1017.0 1014.1 0.0
26/06:00am 19.0 21.3 18.5 97 0.3 NE 4 7 2 4 1016.7 1013.7 0.0
26/05:30am 19.2 21.6 18.9 98 0.2 NE 4 7 2 4 1016.5 1013.5 0.0
26/05:00am 19.2 21.6 18.7 97 0.3 NNE 4 7 2 4 1016.4 1013.4 0.0
26/04:30am 19.2 21.9 18.7 97 0.3 NE 2 6 1 3 1016.4 1013.4 0.0
26/04:00am 18.8 21.3 18.1 96 0.4 NE 2 6 1 3 1016.4 1013.4 0.0
26/03:30am 19.3 21.6 18.6 96 0.4 NE 4 7 2 4 1016.4 1013.4 0.0
26/03:00am 19.3 22.0 18.6 96 0.4 NE 2 6 1 3 1016.4 1013.4 0.0
26/02:30am 19.3 22.0 18.6 96 0.4 NE 2 7 1 4 1016.6 1013.6 0.0
26/02:00am 19.2 21.8 18.5 96 0.4 ENE 2 6 1 3 1016.7 1013.7 0.0
26/01:30am 19.1 21.3 18.4 96 0.4 ENE 4 7 2 4 1017.0 1014.1 0.0
26/01:00am 18.8 21.3 18.1 96 0.4 NE 2 7 1 4 1017.4 1014.5 0.0
26/12:30am 18.8 20.5 18.1 96 0.4 NE 6 9 3 5 1017.7 1014.8 0.0
26/12:00am 18.8 20.5 18.1 96 0.4 NE 6 9 3 5 1017.9 1015.0 0.0
 
Date/Time
EST
Temp
°C
App
Temp
°C
Dew
Point
°C
Rel
Hum
%
Delta-T
°C
Wind Press
QNH
hPa
Press
MSL
hPa
Rain since
9am
mm
Dir  Spd
km/h
Gust
km/h
Spd
kts
Gust
kts
25/11:30pm 19.2 21.1 18.5 96 0.4 ENE 6 9 3 5 1018.0 1015.1 0.0
25/11:00pm 19.4 21.4 18.7 96 0.4 NE 6 9 3 5 1018.4 1015.4 0.0
25/10:30pm 19.6 22.0 18.9 96 0.4 NE 4 9 2 5 1018.5 1015.5 0.0
25/10:00pm 19.8 21.8 19.1 96 0.4 NE 7 15 4 8 1018.6 1015.6 0.0
25/09:30pm 19.9 22.1 19.2 96 0.5 NE 6 11 3 6 1018.7 1015.8 0.0
25/09:00pm 20.0 22.1 19.3 96 0.5 NE 7 15 4 8 1018.7 1015.8 0.0
25/08:30pm 20.3 22.6 19.8 97 0.3 NE 7 17 4 9 1018.5 1015.5 0.0
25/08:00pm 20.2 22.4 19.5 96 0.5 NE 7 11 4 6 1018.2 1015.2 0.0
25/07:30pm 20.2 22.0 19.5 96 0.5 NE 9 15 5 8 1017.7 1014.8 0.0
25/07:00pm 20.2 22.1 19.0 93 0.8 NE 7 15 4 8 1017.2 1014.3 0.0
25/06:30pm 20.3 22.1 18.8 91 1.0 NE 7 11 4 6 1017.0 1014.1 0.0
25/06:00pm 20.3 22.1 18.2 88 1.3 NNE 6 13 3 7 1016.9 1013.9 0.0
25/05:30pm 20.8 22.3 18.0 84 1.8 NE 7 15 4 8 1016.7 1013.7 0.0
25/05:00pm 21.3 22.6 17.5 79 2.4 NE 7 15 4 8 1016.6 1013.6 0.0
25/04:30pm 22.1 22.8 17.9 77 2.7 NE 11 22 6 12 1016.3 1013.3 0.0
25/04:00pm 22.3 22.6 17.9 76 2.8 NE 13 22 7 12 1016.0 1013.1 0.0
25/03:30pm 24.5 25.9 18.7 70 3.8 N 9 17 5 9 1015.9 1013.0 0.0
25/03:00pm 23.9 25.0 18.1 70 3.7 NNE 9 17 5 9 1016.0 1013.1 0.0
25/02:30pm 22.8 23.8 17.7 73 3.2 NNE 9 17 5 9 1016.4 1013.4 0.0
25/02:00pm 22.9 24.1 17.4 71 3.5 NNE 7 17 4 9 1016.6 1013.6 0.0
25/01:30pm 24.2 25.2 17.7 67 4.2 NNE 9 13 5 7 1016.9 1013.9 0.0
25/01:00pm 24.8 25.7 17.5 64 4.7 NE 9 17 5 9 1017.3 1014.4 0.0
25/12:30pm 24.5 25.6 17.2 63 4.6 NNE 7 13 4 7 1017.7 1014.8 0.0
25/12:00pm 25.3 26.4 17.2 61 5.1 NNE 7 15 4 8 1018.3 1015.3 0.0
25/11:30am 24.8 25.9 17.0 62 4.9 NNE 7 15 4 8 1018.7 1015.8 0.0
25/11:00am 25.2 26.9 18.6 67 4.3 N 7 13 4 7 1019.2 1016.3 0.0
25/10:30am 22.5 23.5 16.8 70 3.6 NE 7 11 4 6 1019.6 1016.7 0.0
25/10:00am 22.4 23.6 17.3 73 3.2 NE 7 15 4 8 1019.8 1016.9 0.0
25/09:30am 22.4 23.1 17.1 72 3.3 NE 9 15 5 8 1019.8 1016.9 0.0
25/09:00am 21.7 22.9 17.3 76 2.8 NE 7 17 4 9 1019.4 1016.5 0.0
25/08:30am 20.8 21.5 17.0 79 2.4 ENE 9 15 5 8 1019.1 1016.2 0.0
25/08:00am 20.4 21.7 17.0 81 2.1 ENE 6 9 3 5 1018.8 1015.9 0.0
25/07:30am 19.2 21.5 17.7 91 0.9 E 2 9 1 5 1018.5 1015.5 0.0
25/07:00am 17.6 19.6 17.0 96 0.4 E 2 6 1 3 1018.3 1015.3 0.0
25/06:30am 17.3 18.8 16.7 96 0.4 ESE 4 7 2 4 1018.0 1015.1 0.0
25/06:00am 17.5 19.4 16.7 95 0.5 E 2 7 1 4 1017.7 1014.8 0.0
25/05:30am 17.7 19.4 17.1 96 0.4 SE 4 7 2 4 1017.5 1014.6 0.0
25/05:00am 17.8 19.9 17.2 96 0.4 ESE 2 7 1 4 1017.5 1014.6 0.0
25/04:30am 17.4 19.3 16.8 96 0.4 SE 2 7 1 4 1017.2 1014.3 0.0
25/04:00am 17.5 19.9 16.9 96 0.4 CALM 0 0 0 0 1017.1 1014.2 0.0
25/03:30am 17.8 19.9 17.2 96 0.4 SE 2 6 1 3 1017.2 1014.3 0.0
25/03:00am 17.8 20.1 16.8 94 0.6 CALM 0 6 0 3 1017.2 1014.3 0.0
25/02:30am 18.4 20.1 17.2 93 0.7 ENE 4 9 2 5 1017.4 1014.5 0.0
25/02:00am 18.8 20.0 16.9 89 1.2 E 6 11 3 6 1017.6 1014.7 0.0
25/01:30am 18.7 19.8 16.7 88 1.2 E 6 9 3 5 1018.0 1015.1 0.0
25/01:00am 19.0 20.2 16.8 87 1.4 ENE 6 15 3 8 1018.4 1015.4 0.0
25/12:30am 18.9 20.2 17.0 89 1.2 ENE 6 11 3 6 1018.9 1016.0 0.0
25/12:00am 19.2 20.5 17.2 88 1.2 ENE 6 13 3 7 1019.2 1016.3 0.0
 
Date/Time
EST
Temp
°C
App
Temp
°C
Dew
Point
°C
Rel
Hum
%
Delta-T
°C
Wind Press
QNH
hPa
Press
MSL
hPa
Rain since
9am
mm
Dir  Spd
km/h
Gust
km/h
Spd
kts
Gust
kts
24/11:30pm 19.5 20.6 17.1 86 1.5 ENE 7 13 4 7 1019.5 1016.6 0.0
24/11:00pm 19.5 20.1 16.7 84 1.7 ENE 9 15 5 8 1019.5 1016.6 0.0
24/10:30pm 19.5 20.4 16.5 83 1.8 ENE 7 13 4 7 1019.5 1016.6 0.0
24/10:00pm 19.9 20.4 17.5 86 1.5 NE 11 20 6 11 1019.7 1016.8 0.0
24/09:30pm 19.6 20.7 17.0 85 1.6 ENE 7 17 4 9 1019.7 1016.8 0.0
24/09:00pm 19.7 20.9 17.3 86 1.5 ENE 7 15 4 8 1019.8 1016.9 0.0
24/08:30pm 19.6 21.2 17.9 90 1.1 NE 6 11 3 6 1019.8 1016.9 0.0
24/08:00pm 19.7 22.1 18.7 94 0.6 NNE 4 9 2 5 1019.4 1016.5 0.0
24/07:30pm 20.1 22.3 19.1 94 0.6 NE 6 11 3 6 1019.0 1016.1 0.0
24/07:00pm 20.1 22.0 18.6 91 1.0 NNE 6 11 3 6 1018.8 1015.9 0.0
24/06:30pm 20.3 22.0 18.4 89 1.2 NNE 7 17 4 9 1018.5 1015.5 0.0
24/06:00pm 20.9 22.7 18.8 88 1.3 NNE 7 17 4 9 1018.4 1015.4 0.0
24/05:30pm 21.3 22.2 18.3 83 1.9 NE 11 20 6 11 1017.8 1014.9 0.0
24/05:00pm 21.9 23.1 18.3 80 2.3 NNE 9 17 5 9 1017.8 1014.9 0.0
24/04:30pm 22.3 23.5 18.3 78 2.6 NNE 9 19 5 10 1017.5 1014.6 0.0
24/04:00pm 22.4 24.2 18.8 80 2.3 NE 7 17 4 9 1017.4 1014.5 0.0
24/03:30pm 23.0 23.9 18.3 75 3.0 NE 11 20 6 11 1017.4 1014.5 0.0
24/03:00pm 24.1 24.9 18.1 69 3.8 NE 11 22 6 12 1017.3 1014.4 0.0
24/02:30pm 23.3 24.4 18.0 72 3.4 NE 9 19 5 10 1017.3 1014.4 0.0
24/02:00pm 24.5 25.6 17.2 63 4.6 NE 7 13 4 7 1017.5 1014.6 0.0
24/01:30pm 25.2 26.6 17.7 63 4.8 NE 7 11 4 6 1017.8 1014.9 0.0
24/01:00pm 23.9 25.4 16.7 64 4.5 ESE 4 7 2 4 1018.4 1015.4 0.0
24/12:30pm 24.0 25.1 17.0 65 4.4 NE 7 13 4 7 1018.7 1015.8 0.0
24/12:00pm 23.9 25.1 17.4 67 4.1 E 7 13 4 7 1019.1 1016.2 0.0
24/11:30am 22.9 24.1 16.9 69 3.8 E 6 9 3 5 1019.5 1016.6 0.0
24/11:00am 23.2 24.4 17.4 70 3.7 E 7 15 4 8 1019.8 1016.9 0.0
24/10:30am 22.9 24.5 18.2 75 3.0 E 7 11 4 6 1020.3 1017.4 0.0
24/10:00am 22.3 23.7 17.4 74 3.1 E 6 13 3 7 1020.4 1017.5 0.0
24/09:30am 21.9 23.1 17.3 75 2.9 ESE 7 15 4 8 1020.3 1017.4 0.0
24/09:00am 21.3 22.5 16.9 76 2.7 ESE 6 13 3 7 1020.1 1017.1 2.0
24/08:30am 20.7 22.5 18.3 86 1.5 ESE 6 13 3 7 1019.7 1016.8 2.0
24/08:00am 19.5 21.7 18.3 93 0.8 ESE 4 7 2 4 1019.5 1016.6 2.0
24/07:30am 18.6 19.9 17.6 94 0.6 ESE 7 13 4 7 1019.3 1016.4 2.0
24/07:00am 17.9 19.7 17.3 96 0.4 ESE 4 13 2 7 1019.1 1016.2 2.0
24/06:30am 17.5 18.7 16.9 96 0.4 SE 6 11 3 6 1019.0 1016.1 2.0
24/06:00am 17.3 19.0 16.3 94 0.6 SE 2 4 1 2 1018.3 1015.3 2.0
24/05:30am 17.6 19.2 16.8 95 0.5 SE 4 13 2 7 1018.2 1015.2 2.0
24/05:00am 17.6 18.7 16.6 94 0.6 SE 6 9 3 5 1018.2 1015.2 2.0
24/04:30am 17.8 19.4 16.8 94 0.6 SE 4 9 2 5 1018.3 1015.3 1.8
24/04:00am 17.8 19.1 17.0 95 0.5 SE 6 11 3 6 1018.4 1015.4 1.8
24/03:30am 17.6 18.8 16.8 95 0.5 SE 6 13 3 7 1018.3 1015.3 1.8
24/03:00am 17.5 18.9 16.4 93 0.7 SE 4 7 2 4 1018.7 1015.8 1.8
24/02:30am 17.5 18.4 16.2 92 0.8 SE 6 7 3 4 1018.8 1015.9 1.8
24/02:00am 17.4 18.9 15.7 90 1.0 SE 2 7 1 4 1019.0 1016.1 1.8
24/01:30am 17.7 18.6 16.0 90 1.0 SE 6 9 3 5 1019.4 1016.5 1.8
24/01:00am 17.9 18.8 16.2 90 1.0 SE 6 11 3 6 1019.8 1016.9 1.8
24/12:30am 18.2 19.0 16.4 89 1.1 SE 7 15 4 8 1020.1 1017.1 1.8
24/12:00am 18.5 19.4 16.5 88 1.2 SE 7 13 4 7 1020.3 1017.4 1.8
 
Date/Time
EST
Temp
°C
App
Temp
°C
Dew
Point
°C
Rel
Hum
%
Delta-T
°C
Wind Press
QNH
hPa
Press
MSL
hPa
Rain since
9am
mm
Dir  Spd
km/h
Gust
km/h
Spd
kts
Gust
kts
23/11:30pm 18.7 19.9 16.9 89 1.1 ESE 6 15 3 8 1020.6 1017.7 1.8
23/11:00pm 18.7 19.8 17.2 91 0.9 SE 7 17 4 9 1020.7 1017.8 1.8
23/10:30pm 18.9 19.7 17.2 90 1.1 ESE 9 17 5 9 1020.7 1017.8 1.8
23/10:00pm 19.1 19.9 17.4 90 1.1 SE 9 17 5 9 1020.7 1017.8 1.8
23/09:30pm 19.0 20.3 17.1 89 1.2 ESE 6 15 3 8 1020.8 1017.9 1.8
23/09:00pm 19.3 20.6 17.1 87 1.4 ESE 6 13 3 7 1020.6 1017.7 1.8
23/08:30pm 19.3 20.5 16.9 86 1.5 ESE 6 13 3 7 1020.4 1017.5 1.8
23/08:00pm 19.6 20.2 16.8 84 1.7 SE 9 17 5 9 1019.9 1017.0 1.8
23/07:30pm 19.6 21.9 16.8 84 1.7 CALM 0 4 0 2 1019.5 1016.6 1.8
23/07:00pm 19.6 21.2 17.0 85 1.6 SE 4 7 2 4 1019.2 1016.3 1.8
23/06:30pm 20.0 21.8 17.4 85 1.6 ESE 4 11 2 6 1019.2 1016.3 1.8
23/06:00pm 20.2 21.9 18.0 87 1.4 ESE 6 11 3 6 1018.9 1016.0 1.8
23/05:30pm 20.6 23.7 18.7 89 1.2 CALM 0 2 0 1 1018.5 1015.5 1.4
23/05:00pm 20.6 23.7 18.7 89 1.2 CALM 0 4 0 2 1018.2 1015.2 1.4
23/04:30pm 21.9 23.6 18.1 79 2.4 E 6 13 3 7 1017.9 1015.0 0.0

Other Formats:

Comma delimited format used in spreadsheet applications
http://www.bom.gov.au/fwo/IDQ60801/IDQ60801.95293.axf

JavaScript Object Notation format (JSON) in row-major order
http://www.bom.gov.au/fwo/IDQ60801/IDQ60801.95293.json